sensor_id;sensor_type;location;lat;lon;timestamp;pressure;altitude;pressure_sealevel;temperature;humidity
60817;BME280;51921;51.518;-3.188;2024-03-23T00:56:08;101356.59;;;1.55;100.00
60817;BME280;51921;51.518;-3.188;2024-03-23T00:58:33;101356.34;;;1.72;100.00
60817;BME280;51921;51.518;-3.188;2024-03-23T01:00:59;101356.78;;;1.73;100.00
60817;BME280;51921;51.518;-3.188;2024-03-23T01:03:24;101355.29;;;1.80;100.00
60817;BME280;51921;51.518;-3.188;2024-03-23T01:05:50;101350.02;;;1.88;100.00
60817;BME280;51921;51.518;-3.188;2024-03-23T01:08:16;101350.70;;;1.48;100.00
60817;BME280;51921;51.518;-3.188;2024-03-23T01:10:41;101350.72;;;1.32;100.00
60817;BME280;51921;51.518;-3.188;2024-03-23T01:13:07;101353.59;;;1.32;100.00
60817;BME280;51921;51.518;-3.188;2024-03-23T01:15:33;101354.14;;;1.57;100.00
60817;BME280;51921;51.518;-3.188;2024-03-23T01:17:58;101358.53;;;1.41;100.00
60817;BME280;51921;51.518;-3.188;2024-03-23T01:20:24;101350.84;;;1.04;100.00
60817;BME280;51921;51.518;-3.188;2024-03-23T01:22:49;101356.27;;;1.45;100.00
60817;BME280;51921;51.518;-3.188;2024-03-23T01:25:15;101356.59;;;1.63;100.00
60817;BME280;51921;51.518;-3.188;2024-03-23T01:27:41;101355.68;;;0.52;100.00
60817;BME280;51921;51.518;-3.188;2024-03-23T01:30:07;101350.89;;;0.45;100.00
60817;BME280;51921;51.518;-3.188;2024-03-23T01:32:32;101339.82;;;1.25;100.00
60817;BME280;51921;51.518;-3.188;2024-03-23T01:34:57;101343.68;;;0.90;100.00
60817;BME280;51921;51.518;-3.188;2024-03-23T01:37:23;101339.42;;;1.57;100.00
60817;BME280;51921;51.518;-3.188;2024-03-23T01:39:48;101335.13;;;1.39;100.00
60817;BME280;51921;51.518;-3.188;2024-03-23T01:42:14;101339.40;;;1.05;100.00
60817;BME280;51921;51.518;-3.188;2024-03-23T01:44:40;101334.62;;;1.44;100.00
60817;BME280;51921;51.518;-3.188;2024-03-23T01:47:06;101345.64;;;1.30;100.00
60817;BME280;51921;51.518;-3.188;2024-03-23T01:49:31;101341.40;;;1.75;100.00
60817;BME280;51921;51.518;-3.188;2024-03-23T01:51:57;101345.01;;;1.02;100.00
60817;BME280;51921;51.518;-3.188;2024-03-23T01:54:23;101346.03;;;1.46;100.00
60817;BME280;51921;51.518;-3.188;2024-03-23T01:56:48;101334.99;;;1.72;100.00
60817;BME280;51921;51.518;-3.188;2024-03-23T01:59:14;101329.24;;;1.21;100.00
60817;BME280;51921;51.518;-3.188;2024-03-23T02:01:39;101325.63;;;0.94;100.00
60817;BME280;51921;51.518;-3.188;2024-03-23T02:04:05;101329.82;;;1.10;100.00
60817;BME280;51921;51.518;-3.188;2024-03-23T02:06:31;101331.50;;;1.24;100.00
60817;BME280;51921;51.518;-3.188;2024-03-23T02:08:56;101330.86;;;1.38;100.00
60817;BME280;51921;51.518;-3.188;2024-03-23T02:11:22;101329.06;;;1.74;100.00
60817;BME280;51921;51.518;-3.188;2024-03-23T02:13:47;101326.71;;;1.43;100.00
60817;BME280;51921;51.518;-3.188;2024-03-23T02:16:13;101327.38;;;1.22;100.00
60817;BME280;51921;51.518;-3.188;2024-03-23T02:18:39;101326.63;;;0.83;100.00
60817;BME280;51921;51.518;-3.188;2024-03-23T02:21:04;101316.24;;;0.79;100.00
60817;BME280;51921;51.518;-3.188;2024-03-23T02:23:30;101313.88;;;0.85;100.00
60817;BME280;51921;51.518;-3.188;2024-03-23T02:25:55;101313.62;;;0.97;100.00
60817;BME280;51921;51.518;-3.188;2024-03-23T02:28:21;101312.06;;;0.90;100.00
60817;BME280;51921;51.518;-3.188;2024-03-23T02:30:47;101310.87;;;0.71;100.00
60817;BME280;51921;51.518;-3.188;2024-03-23T02:33:12;101307.44;;;1.08;100.00
60817;BME280;51921;51.518;-3.188;2024-03-23T02:35:38;101309.69;;;1.18;100.00
60817;BME280;51921;51.518;-3.188;2024-03-23T02:38:04;101315.77;;;0.63;100.00
60817;BME280;51921;51.518;-3.188;2024-03-23T02:40:29;101310.61;;;0.69;100.00
60817;BME280;51921;51.518;-3.188;2024-03-23T02:42:55;101305.78;;;0.79;100.00
60817;BME280;51921;51.518;-3.188;2024-03-23T02:45:20;101302.55;;;1.01;100.00
60817;BME280;51921;51.518;-3.188;2024-03-23T02:47:46;101298.10;;;0.73;100.00
60817;BME280;51921;51.518;-3.188;2024-03-23T02:50:12;101298.12;;;1.47;100.00
60817;BME280;51921;51.518;-3.188;2024-03-23T02:52:37;101294.77;;;1.98;100.00
60817;BME280;51921;51.518;-3.188;2024-03-23T02:55:03;101289.68;;;0.44;100.00
60817;BME280;51921;51.518;-3.188;2024-03-23T02:57:28;101285.57;;;1.08;100.00
60817;BME280;51921;51.518;-3.188;2024-03-23T02:59:54;101283.76;;;1.46;100.00
60817;BME280;51921;51.518;-3.188;2024-03-23T03:02:20;101278.90;;;0.66;100.00
60817;BME280;51921;51.518;-3.188;2024-03-23T03:04:45;101277.69;;;0.77;100.00
60817;BME280;51921;51.518;-3.188;2024-03-23T03:07:11;101282.98;;;1.22;100.00
60817;BME280;51921;51.518;-3.188;2024-03-23T03:09:36;101275.91;;;0.89;100.00
60817;BME280;51921;51.518;-3.188;2024-03-23T03:12:02;101279.64;;;1.10;100.00
60817;BME280;51921;51.518;-3.188;2024-03-23T03:14:28;101278.05;;;0.77;100.00
60817;BME280;51921;51.518;-3.188;2024-03-23T03:16:53;101268.99;;;0.54;100.00
60817;BME280;51921;51.518;-3.188;2024-03-23T03:19:19;101258.65;;;0.50;100.00
60817;BME280;51921;51.518;-3.188;2024-03-23T03:21:44;101269.75;;;0.81;100.00
60817;BME280;51921;51.518;-3.188;2024-03-23T03:24:10;101259.58;;;0.62;100.00
60817;BME280;51921;51.518;-3.188;2024-03-23T03:26:35;101258.83;;;0.54;100.00
60817;BME280;51921;51.518;-3.188;2024-03-23T03:29:01;101259.53;;;0.84;100.00
60817;BME280;51921;51.518;-3.188;2024-03-23T03:31:26;101252.94;;;0.81;100.00
60817;BME280;51921;51.518;-3.188;2024-03-23T03:33:52;101242.94;;;1.16;100.00
60817;BME280;51921;51.518;-3.188;2024-03-23T03:36:17;101242.99;;;0.99;100.00
60817;BME280;51921;51.518;-3.188;2024-03-23T03:38:43;101240.55;;;0.57;100.00
60817;BME280;51921;51.518;-3.188;2024-03-23T03:41:08;101245.36;;;0.14;100.00
60817;BME280;51921;51.518;-3.188;2024-03-23T03:43:34;101238.21;;;0.31;100.00
60817;BME280;51921;51.518;-3.188;2024-03-23T03:46:00;101240.84;;;0.29;100.00
60817;BME280;51921;51.518;-3.188;2024-03-23T03:48:25;101245.45;;;0.26;100.00
60817;BME280;51921;51.518;-3.188;2024-03-23T03:50:52;101245.20;;;0.33;100.00
60817;BME280;51921;51.518;-3.188;2024-03-23T03:53:16;101241.20;;;0.29;100.00
60817;BME280;51921;51.518;-3.188;2024-03-23T03:55:42;101241.45;;;0.62;100.00
60817;BME280;51921;51.518;-3.188;2024-03-23T03:58:07;101246.24;;;0.53;100.00
60817;BME280;51921;51.518;-3.188;2024-03-23T04:00:33;101246.11;;;0.29;100.00
60817;BME280;51921;51.518;-3.188;2024-03-23T04:02:59;101244.15;;;0.35;100.00
60817;BME280;51921;51.518;-3.188;2024-03-23T04:05:24;101242.53;;;0.62;100.00
60817;BME280;51921;51.518;-3.188;2024-03-23T04:07:50;101252.04;;;0.57;100.00
60817;BME280;51921;51.518;-3.188;2024-03-23T04:10:15;101245.30;;;0.21;100.00
60817;BME280;51921;51.518;-3.188;2024-03-23T04:12:41;101245.39;;;0.05;100.00
60817;BME280;51921;51.518;-3.188;2024-03-23T04:15:07;101238.47;;;0.40;100.00
60817;BME280;51921;51.518;-3.188;2024-03-23T04:17:32;101232.28;;;0.40;100.00
60817;BME280;51921;51.518;-3.188;2024-03-23T04:19:58;101243.24;;;0.31;100.00
60817;BME280;51921;51.518;-3.188;2024-03-23T04:22:23;101236.14;;;0.33;100.00
60817;BME280;51921;51.518;-3.188;2024-03-23T04:24:49;101242.35;;;0.11;100.00
60817;BME280;51921;51.518;-3.188;2024-03-23T04:27:14;101238.16;;;0.38;100.00
60817;BME280;51921;51.518;-3.188;2024-03-23T04:29:40;101230.87;;;0.80;100.00
60817;BME280;51921;51.518;-3.188;2024-03-23T04:32:06;101228.64;;;0.44;100.00
60817;BME280;51921;51.518;-3.188;2024-03-23T04:34:31;101232.05;;;0.64;100.00
60817;BME280;51921;51.518;-3.188;2024-03-23T04:36:57;101229.31;;;0.49;100.00
60817;BME280;51921;51.518;-3.188;2024-03-23T04:39:23;101241.36;;;0.73;100.00
60817;BME280;51921;51.518;-3.188;2024-03-23T04:41:48;101234.83;;;1.03;100.00
60817;BME280;51921;51.518;-3.188;2024-03-23T04:44:14;101232.36;;;0.72;100.00
60817;BME280;51921;51.518;-3.188;2024-03-23T04:46:40;101234.96;;;0.54;100.00
60817;BME280;51921;51.518;-3.188;2024-03-23T04:49:05;101238.05;;;0.68;100.00
60817;BME280;51921;51.518;-3.188;2024-03-23T04:51:36;101244.92;;;0.57;100.00
60817;BME280;51921;51.518;-3.188;2024-03-23T04:53:57;101238.99;;;0.44;100.00
60817;BME280;51921;51.518;-3.188;2024-03-23T04:56:22;101250.61;;;0.32;100.00
60817;BME280;51921;51.518;-3.188;2024-03-23T04:58:48;101248.77;;;0.60;100.00
60817;BME280;51921;51.518;-3.188;2024-03-23T05:01:13;101237.45;;;0.21;100.00
60817;BME280;51921;51.518;-3.188;2024-03-23T05:03:39;101245.62;;;0.26;100.00
60817;BME280;51921;51.518;-3.188;2024-03-23T05:06:05;101243.12;;;0.10;100.00
60817;BME280;51921;51.518;-3.188;2024-03-23T05:08:30;101243.66;;;0.57;100.00
60817;BME280;51921;51.518;-3.188;2024-03-23T05:10:56;101237.14;;;0.85;100.00
60817;BME280;51921;51.518;-3.188;2024-03-23T05:13:21;101232.06;;;0.52;100.00
60817;BME280;51921;51.518;-3.188;2024-03-23T05:15:52;101230.75;;;0.94;100.00
60817;BME280;51921;51.518;-3.188;2024-03-23T05:18:13;101229.07;;;0.97;100.00
60817;BME280;51921;51.518;-3.188;2024-03-23T05:20:38;101227.96;;;0.65;100.00
60817;BME280;51921;51.518;-3.188;2024-03-23T05:23:04;101227.90;;;1.04;100.00
60817;BME280;51921;51.518;-3.188;2024-03-23T05:25:30;101230.90;;;1.35;100.00
60817;BME280;51921;51.518;-3.188;2024-03-23T05:27:55;101233.35;;;0.73;100.00
60817;BME280;51921;51.518;-3.188;2024-03-23T05:30:21;101221.68;;;1.10;100.00
60817;BME280;51921;51.518;-3.188;2024-03-23T05:32:47;101227.80;;;0.92;100.00
60817;BME280;51921;51.518;-3.188;2024-03-23T05:35:12;101223.39;;;0.88;100.00
60817;BME280;51921;51.518;-3.188;2024-03-23T05:37:38;101215.94;;;2.09;100.00
60817;BME280;51921;51.518;-3.188;2024-03-23T05:40:04;101217.36;;;1.27;100.00
60817;BME280;51921;51.518;-3.188;2024-03-23T05:42:29;101216.63;;;1.80;100.00
60817;BME280;51921;51.518;-3.188;2024-03-23T05:44:54;101215.20;;;1.25;100.00
60817;BME280;51921;51.518;-3.188;2024-03-23T05:47:20;101215.03;;;1.27;100.00
60817;BME280;51921;51.518;-3.188;2024-03-23T05:49:46;101211.71;;;1.14;100.00
60817;BME280;51921;51.518;-3.188;2024-03-23T05:52:11;101214.26;;;1.88;100.00
60817;BME280;51921;51.518;-3.188;2024-03-23T05:54:36;101207.31;;;2.43;100.00
60817;BME280;51921;51.518;-3.188;2024-03-23T05:57:02;101210.11;;;1.87;100.00
60817;BME280;51921;51.518;-3.188;2024-03-23T05:59:27;101204.03;;;2.09;100.00
60817;BME280;51921;51.518;-3.188;2024-03-23T06:01:53;101196.30;;;1.73;100.00
60817;BME280;51921;51.518;-3.188;2024-03-23T06:04:19;101198.91;;;1.63;100.00
60817;BME280;51921;51.518;-3.188;2024-03-23T06:06:45;101195.28;;;2.26;100.00
60817;BME280;51921;51.518;-3.188;2024-03-23T06:09:10;101205.36;;;1.13;100.00
60817;BME280;51921;51.518;-3.188;2024-03-23T06:11:36;101196.31;;;1.63;100.00
60817;BME280;51921;51.518;-3.188;2024-03-23T06:14:01;101202.63;;;1.61;100.00
60817;BME280;51921;51.518;-3.188;2024-03-23T06:16:27;101196.21;;;1.83;100.00
60817;BME280;51921;51.518;-3.188;2024-03-23T06:18:53;101188.56;;;1.22;100.00
60817;BME280;51921;51.518;-3.188;2024-03-23T06:21:18;101181.44;;;1.73;100.00
60817;BME280;51921;51.518;-3.188;2024-03-23T06:23:44;101180.82;;;1.54;100.00
60817;BME280;51921;51.518;-3.188;2024-03-23T06:26:09;101181.69;;;3.22;100.00
60817;BME280;51921;51.518;-3.188;2024-03-23T06:28:34;101184.91;;;2.44;100.00
60817;BME280;51921;51.518;-3.188;2024-03-23T06:31:00;101179.71;;;1.41;100.00
60817;BME280;51921;51.518;-3.188;2024-03-23T06:33:26;101182.41;;;2.26;100.00
60817;BME280;51921;51.518;-3.188;2024-03-23T06:35:51;101179.59;;;2.40;100.00
60817;BME280;51921;51.518;-3.188;2024-03-23T06:38:17;101175.34;;;2.47;100.00
60817;BME280;51921;51.518;-3.188;2024-03-23T06:40:43;101171.10;;;1.74;100.00
60817;BME280;51921;51.518;-3.188;2024-03-23T06:43:08;101165.05;;;1.48;100.00
60817;BME280;51921;51.518;-3.188;2024-03-23T06:45:34;101166.05;;;1.79;100.00
60817;BME280;51921;51.518;-3.188;2024-03-23T06:47:59;101161.83;;;1.72;100.00
60817;BME280;51921;51.518;-3.188;2024-03-23T06:50:25;101161.80;;;1.25;100.00
60817;BME280;51921;51.518;-3.188;2024-03-23T06:52:51;101158.96;;;1.70;100.00
60817;BME280;51921;51.518;-3.188;2024-03-23T06:55:16;101154.97;;;1.44;100.00
60817;BME280;51921;51.518;-3.188;2024-03-23T06:57:42;101156.89;;;1.76;100.00
60817;BME280;51921;51.518;-3.188;2024-03-23T07:00:09;101154.59;;;1.68;100.00
60817;BME280;51921;51.518;-3.188;2024-03-23T07:02:33;101149.49;;;1.84;100.00
60817;BME280;51921;51.518;-3.188;2024-03-23T07:04:59;101156.26;;;1.73;100.00
60817;BME280;51921;51.518;-3.188;2024-03-23T07:07:24;101145.43;;;1.71;100.00
60817;BME280;51921;51.518;-3.188;2024-03-23T07:09:50;101143.91;;;1.37;100.00
60817;BME280;51921;51.518;-3.188;2024-03-23T07:12:16;101148.78;;;1.61;100.00
60817;BME280;51921;51.518;-3.188;2024-03-23T07:14:41;101150.77;;;1.52;100.00
60817;BME280;51921;51.518;-3.188;2024-03-23T07:17:07;101153.83;;;1.61;100.00
60817;BME280;51921;51.518;-3.188;2024-03-23T07:19:32;101140.20;;;1.31;100.00
60817;BME280;51921;51.518;-3.188;2024-03-23T07:21:58;101153.89;;;1.32;100.00
60817;BME280;51921;51.518;-3.188;2024-03-23T07:24:24;101145.22;;;1.36;100.00
60817;BME280;51921;51.518;-3.188;2024-03-23T07:26:49;101143.94;;;1.89;100.00
60817;BME280;51921;51.518;-3.188;2024-03-23T07:29:15;101150.91;;;2.03;100.00
60817;BME280;51921;51.518;-3.188;2024-03-23T07:31:40;101146.37;;;2.39;100.00
60817;BME280;51921;51.518;-3.188;2024-03-23T07:34:06;101146.51;;;2.63;100.00
60817;BME280;51921;51.518;-3.188;2024-03-23T07:36:31;101150.05;;;2.43;100.00
60817;BME280;51921;51.518;-3.188;2024-03-23T07:38:57;101149.02;;;2.56;100.00
60817;BME280;51921;51.518;-3.188;2024-03-23T07:41:22;101145.40;;;2.57;100.00
60817;BME280;51921;51.518;-3.188;2024-03-23T07:43:48;101140.27;;;3.44;100.00
60817;BME280;51921;51.518;-3.188;2024-03-23T07:46:14;101132.64;;;2.87;100.00
60817;BME280;51921;51.518;-3.188;2024-03-23T07:48:39;101129.10;;;2.74;100.00
60817;BME280;51921;51.518;-3.188;2024-03-23T07:51:06;101121.19;;;2.25;100.00
60817;BME280;51921;51.518;-3.188;2024-03-23T07:53:31;101119.95;;;2.59;100.00
60817;BME280;51921;51.518;-3.188;2024-03-23T07:55:57;101117.34;;;2.29;100.00
60817;BME280;51921;51.518;-3.188;2024-03-23T07:58:21;101123.12;;;2.71;100.00
60817;BME280;51921;51.518;-3.188;2024-03-23T08:00:46;101120.84;;;3.37;100.00
60817;BME280;51921;51.518;-3.188;2024-03-23T08:03:12;101113.26;;;2.71;100.00
60817;BME280;51921;51.518;-3.188;2024-03-23T08:05:37;101110.64;;;2.70;100.00
60817;BME280;51921;51.518;-3.188;2024-03-23T08:08:03;101118.88;;;3.57;100.00
60817;BME280;51921;51.518;-3.188;2024-03-23T08:10:28;101110.97;;;4.84;100.00
60817;BME280;51921;51.518;-3.188;2024-03-23T08:12:54;101104.14;;;5.08;100.00
60817;BME280;51921;51.518;-3.188;2024-03-23T08:15:19;101094.71;;;4.38;100.00
60817;BME280;51921;51.518;-3.188;2024-03-23T08:17:45;101088.04;;;4.73;100.00
60817;BME280;51921;51.518;-3.188;2024-03-23T08:20:11;101084.36;;;4.91;100.00
60817;BME280;51921;51.518;-3.188;2024-03-23T08:22:36;101086.77;;;5.33;100.00
60817;BME280;51921;51.518;-3.188;2024-03-23T08:25:01;101087.02;;;5.67;100.00
60817;BME280;51921;51.518;-3.188;2024-03-23T08:27:27;101083.10;;;6.79;95.37
60817;BME280;51921;51.518;-3.188;2024-03-23T08:29:52;101087.73;;;5.84;92.53
60817;BME280;51921;51.518;-3.188;2024-03-23T08:32:18;101092.09;;;6.40;96.31
60817;BME280;51921;51.518;-3.188;2024-03-23T08:34:43;101082.47;;;6.30;95.80
60817;BME280;51921;51.518;-3.188;2024-03-23T08:37:09;101084.91;;;7.18;90.03
60817;BME280;51921;51.518;-3.188;2024-03-23T08:39:34;101080.49;;;5.33;96.52
60817;BME280;51921;51.518;-3.188;2024-03-23T08:42:00;101073.26;;;5.38;100.00
60817;BME280;51921;51.518;-3.188;2024-03-23T08:44:26;101073.05;;;6.34;99.38
60817;BME280;51921;51.518;-3.188;2024-03-23T08:46:51;101067.35;;;5.92;98.92
60817;BME280;51921;51.518;-3.188;2024-03-23T08:49:17;101065.16;;;5.51;99.58
60817;BME280;51921;51.518;-3.188;2024-03-23T08:51:42;101056.48;;;5.15;100.00
60817;BME280;51921;51.518;-3.188;2024-03-23T08:54:08;101057.96;;;5.52;99.05
60817;BME280;51921;51.518;-3.188;2024-03-23T08:56:33;101060.67;;;5.65;97.59
60817;BME280;51921;51.518;-3.188;2024-03-23T08:58:59;101050.38;;;6.18;95.54
60817;BME280;51921;51.518;-3.188;2024-03-23T09:01:24;101054.84;;;5.68;95.28
60817;BME280;51921;51.518;-3.188;2024-03-23T09:03:50;101048.05;;;5.96;95.43
60817;BME280;51921;51.518;-3.188;2024-03-23T09:06:16;101049.49;;;5.86;96.45
60817;BME280;51921;51.518;-3.188;2024-03-23T09:08:41;101048.26;;;5.21;100.00
60817;BME280;51921;51.518;-3.188;2024-03-23T09:11:07;101048.67;;;4.46;100.00
60817;BME280;51921;51.518;-3.188;2024-03-23T09:13:32;101045.94;;;4.27;100.00
60817;BME280;51921;51.518;-3.188;2024-03-23T09:15:57;101051.66;;;4.63;100.00
60817;BME280;51921;51.518;-3.188;2024-03-23T09:18:23;101047.63;;;4.80;100.00
60817;BME280;51921;51.518;-3.188;2024-03-23T09:20:48;101031.87;;;5.71;100.00
60817;BME280;51921;51.518;-3.188;2024-03-23T09:23:14;101046.16;;;5.56;100.00
60817;BME280;51921;51.518;-3.188;2024-03-23T09:25:40;101037.67;;;5.23;100.00
60817;BME280;51921;51.518;-3.188;2024-03-23T09:28:05;101028.83;;;4.96;100.00
60817;BME280;51921;51.518;-3.188;2024-03-23T09:30:31;101039.41;;;5.04;100.00
60817;BME280;51921;51.518;-3.188;2024-03-23T09:32:56;101030.03;;;5.03;100.00
60817;BME280;51921;51.518;-3.188;2024-03-23T09:35:21;101016.64;;;4.36;100.00
60817;BME280;51921;51.518;-3.188;2024-03-23T09:37:47;101009.65;;;4.61;100.00
60817;BME280;51921;51.518;-3.188;2024-03-23T09:40:12;101012.35;;;5.03;100.00
60817;BME280;51921;51.518;-3.188;2024-03-23T09:42:38;101008.23;;;4.78;100.00
60817;BME280;51921;51.518;-3.188;2024-03-23T09:45:06;100998.04;;;5.21;100.00
60817;BME280;51921;51.518;-3.188;2024-03-23T09:47:29;100997.82;;;5.29;100.00
60817;BME280;51921;51.518;-3.188;2024-03-23T09:49:55;100991.14;;;5.50;100.00
60817;BME280;51921;51.518;-3.188;2024-03-23T09:52:20;100994.24;;;5.72;99.42
60817;BME280;51921;51.518;-3.188;2024-03-23T09:54:46;100986.76;;;5.86;100.00
60817;BME280;51921;51.518;-3.188;2024-03-23T09:57:11;100980.69;;;5.38;100.00
60817;BME280;51921;51.518;-3.188;2024-03-23T09:59:37;100962.10;;;5.51;99.18
60817;BME280;51921;51.518;-3.188;2024-03-23T10:02:02;100976.30;;;5.77;95.37
60817;BME280;51921;51.518;-3.188;2024-03-23T10:04:42;100983.03;;;5.38;98.64
60817;BME280;51921;51.518;-3.188;2024-03-23T10:06:53;100975.56;;;5.18;95.48
60817;BME280;51921;51.518;-3.188;2024-03-23T10:09:19;100992.54;;;5.30;97.29
60817;BME280;51921;51.518;-3.188;2024-03-23T10:11:44;100977.33;;;4.56;100.00
60817;BME280;51921;51.518;-3.188;2024-03-23T10:14:10;100966.73;;;4.43;100.00
60817;BME280;51921;51.518;-3.188;2024-03-23T10:16:35;100985.11;;;4.28;100.00
60817;BME280;51921;51.518;-3.188;2024-03-23T10:19:01;100981.84;;;4.82;100.00
60817;BME280;51921;51.518;-3.188;2024-03-23T10:21:26;100973.99;;;4.06;100.00
60817;BME280;51921;51.518;-3.188;2024-03-23T10:23:52;100980.97;;;4.16;100.00
60817;BME280;51921;51.518;-3.188;2024-03-23T10:26:19;100977.19;;;4.14;100.00
60817;BME280;51921;51.518;-3.188;2024-03-23T10:28:53;100989.67;;;3.32;100.00
60817;BME280;51921;51.518;-3.188;2024-03-23T10:31:11;100985.11;;;3.28;100.00
60817;BME280;51921;51.518;-3.188;2024-03-23T10:33:34;100968.73;;;3.27;100.00
60817;BME280;51921;51.518;-3.188;2024-03-23T10:35:59;100978.02;;;3.44;100.00
60817;BME280;51921;51.518;-3.188;2024-03-23T10:38:25;100990.31;;;3.04;100.00
60817;BME280;51921;51.518;-3.188;2024-03-23T10:40:51;100984.34;;;2.66;100.00
60817;BME280;51921;51.518;-3.188;2024-03-23T10:43:16;100981.47;;;2.76;100.00
60817;BME280;51921;51.518;-3.188;2024-03-23T10:45:42;100986.24;;;3.00;100.00
60817;BME280;51921;51.518;-3.188;2024-03-23T10:48:08;100970.72;;;3.01;100.00
60817;BME280;51921;51.518;-3.188;2024-03-23T10:50:33;100974.05;;;2.35;100.00
60817;BME280;51921;51.518;-3.188;2024-03-23T10:52:59;100970.02;;;2.88;100.00
60817;BME280;51921;51.518;-3.188;2024-03-23T10:55:24;100958.48;;;3.85;100.00
60817;BME280;51921;51.518;-3.188;2024-03-23T10:57:53;100953.95;;;3.72;100.00
60817;BME280;51921;51.518;-3.188;2024-03-23T11:00:16;100972.62;;;3.00;100.00
60817;BME280;51921;51.518;-3.188;2024-03-23T11:02:41;100955.07;;;2.85;100.00
60817;BME280;51921;51.518;-3.188;2024-03-23T11:07:33;100969.53;;;2.70;100.00
60817;BME280;51921;51.518;-3.188;2024-03-23T11:09:58;100954.58;;;2.62;100.00
60817;BME280;51921;51.518;-3.188;2024-03-23T11:12:29;100945.34;;;2.23;100.00
60817;BME280;51921;51.518;-3.188;2024-03-23T11:14:50;100944.33;;;1.89;100.00
60817;BME280;51921;51.518;-3.188;2024-03-23T11:17:18;100946.88;;;2.41;100.00
60817;BME280;51921;51.518;-3.188;2024-03-23T11:19:40;100950.20;;;2.17;100.00
60817;BME280;51921;51.518;-3.188;2024-03-23T11:22:05;100945.62;;;3.00;100.00
60817;BME280;51921;51.518;-3.188;2024-03-23T11:24:31;100947.44;;;3.57;100.00
60817;BME280;51921;51.518;-3.188;2024-03-23T11:26:57;100942.54;;;3.67;100.00
60817;BME280;51921;51.518;-3.188;2024-03-23T11:29:22;100941.57;;;3.59;100.00
60817;BME280;51921;51.518;-3.188;2024-03-23T11:31:48;100936.14;;;3.96;100.00
60817;BME280;51921;51.518;-3.188;2024-03-23T11:34:15;100926.29;;;3.95;100.00
60817;BME280;51921;51.518;-3.188;2024-03-23T11:36:39;100935.73;;;4.55;100.00
60817;BME280;51921;51.518;-3.188;2024-03-23T11:39:13;100929.93;;;4.88;100.00
60817;BME280;51921;51.518;-3.188;2024-03-23T11:41:30;100933.17;;;5.36;100.00
60817;BME280;51921;51.518;-3.188;2024-03-23T11:43:55;100915.91;;;5.15;100.00
60817;BME280;51921;51.518;-3.188;2024-03-23T11:46:22;100926.30;;;4.88;100.00
60817;BME280;51921;51.518;-3.188;2024-03-23T11:48:49;100929.10;;;4.50;100.00
60817;BME280;51921;51.518;-3.188;2024-03-23T11:51:12;100924.00;;;5.32;100.00
60817;BME280;51921;51.518;-3.188;2024-03-23T11:53:37;100932.13;;;5.38;100.00
60817;BME280;51921;51.518;-3.188;2024-03-23T11:56:03;100939.36;;;4.88;100.00
60817;BME280;51921;51.518;-3.188;2024-03-23T11:58:28;100946.86;;;4.44;100.00
60817;BME280;51921;51.518;-3.188;2024-03-23T12:00:56;100969.77;;;4.08;100.00
60817;BME280;51921;51.518;-3.188;2024-03-23T12:03:20;100967.15;;;3.52;100.00
60817;BME280;51921;51.518;-3.188;2024-03-23T12:05:49;100949.61;;;3.28;100.00
60817;BME280;51921;51.518;-3.188;2024-03-23T12:08:18;100940.51;;;3.92;100.00
60817;BME280;51921;51.518;-3.188;2024-03-23T12:10:36;100947.55;;;3.91;100.00
60817;BME280;51921;51.518;-3.188;2024-03-23T12:13:02;100952.90;;;3.61;100.00
60817;BME280;51921;51.518;-3.188;2024-03-23T12:15:27;100943.51;;;4.53;100.00
60817;BME280;51921;51.518;-3.188;2024-03-23T12:20:19;100935.22;;;3.41;100.00
60817;BME280;51921;51.518;-3.188;2024-03-23T12:22:44;100941.65;;;3.25;100.00
60817;BME280;51921;51.518;-3.188;2024-03-23T12:25:10;100928.98;;;3.16;100.00
60817;BME280;51921;51.518;-3.188;2024-03-23T12:27:35;100921.16;;;3.76;100.00
60817;BME280;51921;51.518;-3.188;2024-03-23T12:30:01;100921.47;;;3.94;100.00
60817;BME280;51921;51.518;-3.188;2024-03-23T12:32:26;100917.55;;;4.00;100.00
60817;BME280;51921;51.518;-3.188;2024-03-23T12:34:52;100905.99;;;4.13;100.00
60817;BME280;51921;51.518;-3.188;2024-03-23T12:37:17;100909.62;;;4.64;100.00
60817;BME280;51921;51.518;-3.188;2024-03-23T12:39:43;100902.95;;;4.05;100.00
60817;BME280;51921;51.518;-3.188;2024-03-23T12:42:08;100907.21;;;4.66;100.00
60817;BME280;51921;51.518;-3.188;2024-03-23T12:44:34;100899.47;;;4.75;100.00
60817;BME280;51921;51.518;-3.188;2024-03-23T12:47:00;100890.12;;;4.63;100.00
60817;BME280;51921;51.518;-3.188;2024-03-23T12:49:25;100881.44;;;4.79;100.00
60817;BME280;51921;51.518;-3.188;2024-03-23T12:51:54;100877.41;;;4.66;100.00
60817;BME280;51921;51.518;-3.188;2024-03-23T12:54:16;100879.77;;;5.31;100.00
60817;BME280;51921;51.518;-3.188;2024-03-23T12:56:42;100879.37;;;5.18;100.00
60817;BME280;51921;51.518;-3.188;2024-03-23T12:59:07;100885.94;;;5.42;100.00
60817;BME280;51921;51.518;-3.188;2024-03-23T13:01:33;100875.49;;;4.89;100.00
60817;BME280;51921;51.518;-3.188;2024-03-23T13:03:58;100877.28;;;5.27;100.00
60817;BME280;51921;51.518;-3.188;2024-03-23T13:06:24;100877.10;;;5.16;100.00
60817;BME280;51921;51.518;-3.188;2024-03-23T13:08:49;100875.08;;;6.27;100.00
60817;BME280;51921;51.518;-3.188;2024-03-23T13:11:15;100874.24;;;6.10;100.00
60817;BME280;51921;51.518;-3.188;2024-03-23T13:13:41;100873.60;;;6.08;100.00
60817;BME280;51921;51.518;-3.188;2024-03-23T13:16:06;100870.21;;;6.12;100.00
60817;BME280;51921;51.518;-3.188;2024-03-23T13:18:32;100871.86;;;6.41;100.00
60817;BME280;51921;51.518;-3.188;2024-03-23T13:20:58;100866.56;;;6.39;100.00
60817;BME280;51921;51.518;-3.188;2024-03-23T13:23:23;100854.01;;;5.57;100.00
60817;BME280;51921;51.518;-3.188;2024-03-23T13:25:52;100861.79;;;6.51;100.00
60817;BME280;51921;51.518;-3.188;2024-03-23T13:28:14;100872.74;;;5.72;100.00
60817;BME280;51921;51.518;-3.188;2024-03-23T13:30:39;100868.36;;;5.57;100.00